createdAt,value
2023-03-27T00:01:16.145Z,0.93
2023-03-27T00:03:43.332Z,1.13
2023-03-27T00:06:16.439Z,1.77
2023-03-27T00:08:44.641Z,1.10
2023-03-27T00:11:11.682Z,1.83
2023-03-27T00:13:48.926Z,1.17
2023-03-27T00:16:19.464Z,1.63
2023-03-27T00:18:46.573Z,1.27
2023-03-27T00:21:13.274Z,1.10
2023-03-27T00:23:40.357Z,1.53
2023-03-27T00:26:07.202Z,1.60
2023-03-27T00:28:35.317Z,1.20
2023-03-27T00:31:02.179Z,1.03
2023-03-27T00:33:28.921Z,1.10
2023-03-27T00:35:55.558Z,2.77
2023-03-27T00:38:22.503Z,1.93
2023-03-27T00:40:50.762Z,1.60
2023-03-27T00:43:20.341Z,0.80
2023-03-27T00:45:48.021Z,1.50
2023-03-27T00:48:15.555Z,0.97
2023-03-27T00:50:46.608Z,1.33
2023-03-27T00:53:21.797Z,1.37
2023-03-27T00:55:51.790Z,1.23
2023-03-27T00:58:28.532Z,1.23
2023-03-27T01:00:57.097Z,1.40
2023-03-27T01:03:29.371Z,1.40
2023-03-27T01:05:58.423Z,1.80
2023-03-27T01:08:27.176Z,1.00
2023-03-27T01:10:59.048Z,0.90
2023-03-27T01:13:56.651Z,1.43
2023-03-27T01:17:07.497Z,1.10
2023-03-27T01:19:42.085Z,1.20
2023-03-27T01:22:35.407Z,0.73
2023-03-27T01:25:20.652Z,0.70
2023-03-27T01:28:14.449Z,1.20
2023-03-27T01:31:02.874Z,1.07
2023-03-27T01:33:42.213Z,1.17
2023-03-27T01:36:27.299Z,2.33
2023-03-27T01:39:13.303Z,1.10
2023-03-27T01:41:49.830Z,1.77
2023-03-27T01:44:53.641Z,1.00
2023-03-27T01:47:46.372Z,1.10
2023-03-27T01:50:19.593Z,1.17
2023-03-27T01:53:01.193Z,2.50
2023-03-27T01:55:34.326Z,0.93
2023-03-27T01:58:07.748Z,1.07
2023-03-27T02:00:52.611Z,1.43
2023-03-27T02:03:36.837Z,1.77
2023-03-27T02:06:33.245Z,1.07
2023-03-27T02:09:12.956Z,3.27
2023-03-27T02:11:47.323Z,2.00
2023-03-27T02:14:21.517Z,1.37
2023-03-27T02:16:54.116Z,1.40
2023-03-27T02:19:29.994Z,1.20
2023-03-27T02:21:56.528Z,1.33
2023-03-27T02:24:23.128Z,1.00
2023-03-27T02:26:54.347Z,1.47
2023-03-27T02:29:43.988Z,0.93
2023-03-27T02:32:40.005Z,1.80
2023-03-27T02:35:30.897Z,1.27
2023-03-27T02:38:17.344Z,0.93
2023-03-27T02:41:08.847Z,1.77
2023-03-27T02:43:48.396Z,0.53
2023-03-27T02:46:30.701Z,1.23
2023-03-27T02:49:02.082Z,1.30
2023-03-27T02:51:40.281Z,0.93
2023-03-27T02:54:11.402Z,1.00
2023-03-27T02:56:46.155Z,0.73
2023-03-27T02:59:19.310Z,1.97
2023-03-27T03:01:46.021Z,0.93
2023-03-27T03:04:28.741Z,1.07
2023-03-27T03:06:56.087Z,1.83
2023-03-27T03:09:24.808Z,0.70
2023-03-27T03:11:53.948Z,1.40
2023-03-27T03:14:26.239Z,1.33
2023-03-27T03:16:52.932Z,1.40
2023-03-27T03:19:19.612Z,1.73
2023-03-27T03:21:46.867Z,1.37
2023-03-27T03:24:13.492Z,1.57
2023-03-27T03:26:40.025Z,1.13
2023-03-27T03:29:06.624Z,0.70
2023-03-27T03:31:44.293Z,1.73
2023-03-27T03:34:18.858Z,0.90
2023-03-27T03:36:49.964Z,1.37
2023-03-27T03:39:18.248Z,1.40
2023-03-27T03:41:44.900Z,1.20
2023-03-27T03:44:11.428Z,1.43
2023-03-27T03:46:38.102Z,0.80
2023-03-27T03:49:05.084Z,0.90
2023-03-27T03:51:32.843Z,0.70
2023-03-27T03:53:59.389Z,1.03
2023-03-27T03:56:27.684Z,0.90
2023-03-27T03:58:54.256Z,1.47
2023-03-27T04:01:22.076Z,2.03
2023-03-27T04:03:49.426Z,1.37
2023-03-27T04:06:25.537Z,1.40
2023-03-27T04:08:53.123Z,1.53
2023-03-27T04:11:20.514Z,0.90
2023-03-27T04:13:47.117Z,0.97
2023-03-27T04:16:13.837Z,0.90
2023-03-27T04:18:41.347Z,0.83
2023-03-27T04:21:15.702Z,1.17
2023-03-27T04:23:43.070Z,1.37
2023-03-27T04:26:12.101Z,1.80
2023-03-27T04:28:39.870Z,0.93
2023-03-27T04:31:10.162Z,0.83
2023-03-27T04:33:39.198Z,0.77
2023-03-27T04:36:09.217Z,1.40
2023-03-27T04:38:40.736Z,1.80
2023-03-27T04:41:07.983Z,2.13
2023-03-27T04:43:36.739Z,0.93
2023-03-27T04:46:06.301Z,1.30
2023-03-27T04:48:33.601Z,1.10
2023-03-27T04:51:00.177Z,1.47
2023-03-27T04:53:30.127Z,1.23
2023-03-27T04:55:57.138Z,0.83
2023-03-27T04:58:25.678Z,1.03
2023-03-27T05:00:55.665Z,1.27
2023-03-27T05:03:23.985Z,0.87
2023-03-27T05:05:50.794Z,1.17
2023-03-27T05:08:18.295Z,1.37
2023-03-27T05:10:45.587Z,0.60
2023-03-27T05:13:12.855Z,1.67
2023-03-27T05:15:39.417Z,1.53
2023-03-27T05:18:07.194Z,1.80
2023-03-27T05:20:35.408Z,0.90
2023-03-27T05:23:02.392Z,1.27
2023-03-27T05:25:30.761Z,0.70
2023-03-27T05:27:57.982Z,0.63
2023-03-27T05:30:26.108Z,1.57
2023-03-27T05:32:53.476Z,1.70
2023-03-27T05:35:23.177Z,1.37
2023-03-27T05:37:52.429Z,1.73
2023-03-27T05:40:22.134Z,0.77
2023-03-27T05:42:49.810Z,1.70
2023-03-27T05:45:16.946Z,2.13
2023-03-27T05:47:48.177Z,2.40
2023-03-27T05:50:15.959Z,2.60
2023-03-27T05:52:42.774Z,3.27
2023-03-27T05:55:10.340Z,3.00
2023-03-27T05:57:38.682Z,2.40
2023-03-27T06:00:11.571Z,2.00
2023-03-27T06:02:39.277Z,1.50
2023-03-27T06:05:10.762Z,1.10
2023-03-27T06:07:43.152Z,2.40
2023-03-27T06:12:37.943Z,2.40
2023-03-27T06:15:09.369Z,2.73
2023-03-27T06:17:38.277Z,1.90
2023-03-27T06:20:12.598Z,3.33
2023-03-27T06:22:44.018Z,3.90
2023-03-27T06:25:10.729Z,3.67
2023-03-27T06:27:37.935Z,1.77
2023-03-27T06:30:05.163Z,2.60
2023-03-27T06:32:31.760Z,2.53
2023-03-27T06:34:58.396Z,2.13
2023-03-27T06:37:25.123Z,2.00
2023-03-27T06:39:52.084Z,2.80
2023-03-27T06:42:18.741Z,3.47
2023-03-27T06:44:45.438Z,1.90
2023-03-27T06:47:13.019Z,2.77
2023-03-27T06:49:39.817Z,2.43
2023-03-27T06:52:07.065Z,4.23
2023-03-27T06:54:33.832Z,2.47
2023-03-27T06:57:01.591Z,3.43
2023-03-27T06:59:28.312Z,2.83
2023-03-27T07:01:55.123Z,1.70
2023-03-27T07:04:21.851Z,2.23
2023-03-27T07:06:49.010Z,2.33
2023-03-27T07:09:15.865Z,2.93
2023-03-27T07:11:42.642Z,2.30
2023-03-27T07:14:09.624Z,2.73
2023-03-27T07:16:36.422Z,3.03
2023-03-27T07:19:05.322Z,5.37
2023-03-27T07:21:32.113Z,1.40
2023-03-27T07:23:58.944Z,2.40
2023-03-27T07:26:25.722Z,1.90
2023-03-27T07:28:52.575Z,1.93
2023-03-27T07:31:35.077Z,2.67
2023-03-27T07:34:05.897Z,4.50
2023-03-27T07:36:33.756Z,4.30
2023-03-27T07:39:01.205Z,2.43
2023-03-27T07:41:30.084Z,2.43
2023-03-27T07:44:04.893Z,1.60
2023-03-27T07:46:31.611Z,3.33
2023-03-27T07:48:58.402Z,1.90
2023-03-27T07:51:25.412Z,2.50
2023-03-27T07:53:58.414Z,2.33
2023-03-27T07:56:26.429Z,3.17
2023-03-27T07:58:53.184Z,4.23
2023-03-27T08:01:19.885Z,2.47
2023-03-27T08:03:48.661Z,1.63
2023-03-27T08:06:15.667Z,1.60
2023-03-27T08:08:42.446Z,4.03
2023-03-27T08:11:16.381Z,3.13
2023-03-27T08:13:54.380Z,2.93
2023-03-27T08:16:21.576Z,4.40
2023-03-27T08:18:49.620Z,3.07
2023-03-27T08:21:16.514Z,3.13
2023-03-27T08:23:43.278Z,3.10
2023-03-27T08:26:10.247Z,3.43
2023-03-27T08:28:37.770Z,1.53
2023-03-27T08:31:11.404Z,3.10
2023-03-27T08:33:38.526Z,1.40
2023-03-27T08:36:05.553Z,3.03
2023-03-27T08:38:33.465Z,2.83
2023-03-27T08:41:01.728Z,3.33
2023-03-27T08:43:35.161Z,3.13
2023-03-27T08:46:14.325Z,4.43
2023-03-27T08:49:06.829Z,3.40
2023-03-27T08:51:39.825Z,3.63
2023-03-27T08:54:16.794Z,2.60
2023-03-27T08:56:45.047Z,3.27
2023-03-27T08:59:17.221Z,3.80
2023-03-27T09:01:54.121Z,4.50
2023-03-27T09:04:45.500Z,2.73
2023-03-27T09:07:34.311Z,2.10
2023-03-27T09:10:28.292Z,2.30
2023-03-27T09:13:17.511Z,4.83
2023-03-27T09:15:44.133Z,2.90
2023-03-27T09:18:36.014Z,3.47
2023-03-27T09:21:07.848Z,3.27
2023-03-27T09:23:41.797Z,4.27
2023-03-27T09:26:14.687Z,3.03
2023-03-27T09:29:03.457Z,1.30
2023-03-27T09:31:33.402Z,3.03
2023-03-27T09:34:06.798Z,4.63
2023-03-27T09:36:35.733Z,5.23
2023-03-27T09:39:16.953Z,2.90
2023-03-27T09:41:53.652Z,4.70
2023-03-27T09:44:27.890Z,4.07
2023-03-27T09:47:14.289Z,5.13
2023-03-27T09:49:45.448Z,6.23
2023-03-27T09:52:41.772Z,3.33
2023-03-27T09:55:34.234Z,2.77
2023-03-27T09:58:15.619Z,7.20
2023-03-27T10:00:42.306Z,3.63
2023-03-27T10:03:17.965Z,6.23
2023-03-27T10:05:46.744Z,3.30
2023-03-27T10:08:31.085Z,4.07
2023-03-27T10:10:59.333Z,3.50
2023-03-27T10:13:29.213Z,4.70
2023-03-27T10:16:06.414Z,4.43
2023-03-27T10:18:43.386Z,6.10
2023-03-27T10:21:16.584Z,3.80
2023-03-27T10:23:49.553Z,4.80
2023-03-27T10:26:25.358Z,4.20
2023-03-27T10:28:57.582Z,6.00
2023-03-27T10:31:34.251Z,15.87
2023-03-27T10:34:03.652Z,4.87
2023-03-27T10:36:40.369Z,4.43
2023-03-27T10:39:12.770Z,3.43
2023-03-27T10:41:40.360Z,2.90
2023-03-27T10:44:18.936Z,6.67
2023-03-27T10:46:46.051Z,3.80
2023-03-27T10:49:36.867Z,5.80
2023-03-27T10:52:11.329Z,4.70
2023-03-27T10:54:46.900Z,4.77
2023-03-27T10:57:24.768Z,8.27
2023-03-27T10:59:56.835Z,5.80
2023-03-27T11:02:32.192Z,6.50
2023-03-27T11:05:04.691Z,4.70
2023-03-27T11:08:03.818Z,9.17
2023-03-27T11:10:36.839Z,5.47
2023-03-27T11:13:22.944Z,4.43
2023-03-27T11:15:55.656Z,5.33
2023-03-27T11:18:27.411Z,6.10
2023-03-27T11:21:04.439Z,4.78
2023-03-27T11:23:58.185Z,5.10
2023-03-27T11:26:34.155Z,4.57
2023-03-27T11:29:20.327Z,4.37
2023-03-27T11:31:51.107Z,3.43
2023-03-27T11:34:28.824Z,4.90
2023-03-27T11:37:01.910Z,2.83
2023-03-27T11:39:58.506Z,4.47
2023-03-27T11:42:31.431Z,3.43
2023-03-27T11:44:58.814Z,4.47
2023-03-27T11:47:56.520Z,3.13
2023-03-27T11:50:32.049Z,3.33
2023-03-27T11:53:04.363Z,2.83
2023-03-27T11:55:55.892Z,3.70
2023-03-27T11:58:59.439Z,4.10
2023-03-27T12:01:32.095Z,4.30
2023-03-27T12:04:06.686Z,4.57
2023-03-27T12:06:36.371Z,4.87
2023-03-27T12:09:20.736Z,4.47
2023-03-27T12:12:04.596Z,3.80
2023-03-27T12:15:00.711Z,2.47
2023-03-27T12:17:31.446Z,3.40
2023-03-27T12:20:29.541Z,4.13
2023-03-27T12:23:21.288Z,1.93
2023-03-27T12:25:48.284Z,1.97
2023-03-27T12:28:41.216Z,2.77
2023-03-27T12:31:52.904Z,2.60
2023-03-27T12:34:34.358Z,1.57
2023-03-27T12:37:01.836Z,1.77
2023-03-27T12:39:28.717Z,2.13
2023-03-27T12:41:56.252Z,1.97
2023-03-27T12:44:30.418Z,2.20
2023-03-27T12:47:13.104Z,2.17
2023-03-27T12:49:47.692Z,2.10
2023-03-27T12:52:15.492Z,3.53
2023-03-27T12:55:09.319Z,0.80
2023-03-27T12:57:44.460Z,4.33
2023-03-27T13:00:26.291Z,2.57
2023-03-27T13:03:14.882Z,1.70
2023-03-27T13:06:17.130Z,2.00
2023-03-27T13:08:49.568Z,2.13
2023-03-27T13:11:31.129Z,1.23
2023-03-27T13:14:22.452Z,1.93
2023-03-27T13:16:57.532Z,2.63
2023-03-27T13:19:38.097Z,3.57
2023-03-27T13:22:13.490Z,1.17
2023-03-27T13:24:45.578Z,1.83
2023-03-27T13:28:03.769Z,1.97
2023-03-27T13:30:39.639Z,1.50
2023-03-27T13:33:25.915Z,1.60
2023-03-27T13:36:06.751Z,1.73
2023-03-27T13:38:48.271Z,1.40
2023-03-27T13:41:45.746Z,1.10
2023-03-27T13:44:30.410Z,1.13
2023-03-27T13:47:34.378Z,2.43
2023-03-27T13:50:26.958Z,1.43
2023-03-27T13:53:35.279Z,1.97
2023-03-27T13:56:10.872Z,1.13
2023-03-27T13:59:17.562Z,1.90
2023-03-27T14:02:16.963Z,2.23
2023-03-27T14:04:57.192Z,1.73
2023-03-27T14:07:48.553Z,0.93
2023-03-27T14:10:23.973Z,1.50
2023-03-27T14:13:17.917Z,0.80
2023-03-27T14:16:29.305Z,2.20
2023-03-27T14:19:21.156Z,1.43
2023-03-27T14:22:03.457Z,1.33
2023-03-27T14:24:48.926Z,1.00
2023-03-27T14:27:19.276Z,0.80
2023-03-27T14:29:50.293Z,0.63
2023-03-27T14:32:18.020Z,1.53
2023-03-27T14:34:53.995Z,1.67
2023-03-27T14:37:30.280Z,1.03
2023-03-27T14:39:59.040Z,2.43
2023-03-27T14:42:32.844Z,2.30
2023-03-27T14:45:23.995Z,1.60
2023-03-27T14:47:55.607Z,2.17
2023-03-27T14:50:24.541Z,1.30
2023-03-27T14:52:53.429Z,1.00
2023-03-27T14:55:23.403Z,2.10
2023-03-27T14:57:57.100Z,1.57
2023-03-27T15:00:25.702Z,2.23
2023-03-27T15:02:54.744Z,0.80
2023-03-27T15:05:22.573Z,1.10
2023-03-27T15:07:50.081Z,1.33
2023-03-27T15:10:31.424Z,1.13
2023-03-27T15:12:58.341Z,1.00
2023-03-27T15:15:38.878Z,2.50
2023-03-27T15:18:12.523Z,1.60
2023-03-27T15:20:41.029Z,1.17
2023-03-27T15:23:20.197Z,1.43
2023-03-27T15:25:56.466Z,1.40
2023-03-27T15:28:36.642Z,1.57
2023-03-27T15:31:04.600Z,1.40
2023-03-27T15:33:41.081Z,1.00
2023-03-27T15:36:22.416Z,2.80
2023-03-27T15:38:51.096Z,1.20
2023-03-27T15:41:17.700Z,1.83
2023-03-27T15:43:44.576Z,2.13
2023-03-27T15:46:19.721Z,2.60
2023-03-27T15:48:51.121Z,1.53
2023-03-27T15:51:20.398Z,1.77
2023-03-27T15:53:58.430Z,0.97
2023-03-27T15:56:51.546Z,1.90
2023-03-27T15:59:21.784Z,2.60
2023-03-27T16:01:52.145Z,1.10
2023-03-27T16:04:31.163Z,2.73
2023-03-27T16:07:17.899Z,3.83
2023-03-27T16:10:06.764Z,2.67
2023-03-27T16:12:43.402Z,2.17
2023-03-27T16:15:30.610Z,1.57
2023-03-27T16:18:01.432Z,2.67
2023-03-27T16:20:33.322Z,1.93
2023-03-27T16:22:59.903Z,2.10
2023-03-27T16:25:26.623Z,2.63
2023-03-27T16:27:54.743Z,2.10
2023-03-27T16:30:21.283Z,2.90
2023-03-27T16:32:47.951Z,1.57
2023-03-27T16:35:14.861Z,4.40
2023-03-27T16:37:41.409Z,2.00
2023-03-27T16:40:08.474Z,3.40
2023-03-27T16:42:35.050Z,5.33
2023-03-27T16:45:01.872Z,3.93
2023-03-27T16:47:28.559Z,4.73
2023-03-27T16:50:10.231Z,4.17
2023-03-27T16:52:37.934Z,3.60
2023-03-27T16:55:06.996Z,4.23
2023-03-27T16:57:34.251Z,1.53
2023-03-27T17:00:00.830Z,2.20
2023-03-27T17:02:28.630Z,3.80
2023-03-27T17:04:55.374Z,3.47
2023-03-27T17:07:24.790Z,5.33
2023-03-27T17:09:51.547Z,4.40
2023-03-27T17:12:18.153Z,3.70
2023-03-27T17:14:44.732Z,3.60
2023-03-27T17:17:11.558Z,3.50
2023-03-27T17:19:38.119Z,3.93
2023-03-27T17:22:04.864Z,2.27
2023-03-27T17:24:31.489Z,4.57
2023-03-27T17:26:58.015Z,2.73
2023-03-27T17:29:24.618Z,3.13
2023-03-27T17:31:51.925Z,2.23
2023-03-27T17:34:19.545Z,2.43
2023-03-27T17:36:53.944Z,2.73
2023-03-27T17:39:21.831Z,2.43
2023-03-27T17:41:49.155Z,3.83
2023-03-27T17:44:15.913Z,2.10
2023-03-27T17:46:42.521Z,2.77
2023-03-27T17:49:09.172Z,4.67
2023-03-27T17:51:35.843Z,4.27
2023-03-27T17:54:02.463Z,3.10
2023-03-27T17:56:29.011Z,4.47
2023-03-27T17:58:56.498Z,4.60
2023-03-27T18:01:24.746Z,2.40
2023-03-27T18:03:51.483Z,3.70
2023-03-27T18:06:18.575Z,2.67
2023-03-27T18:08:46.772Z,4.50
2023-03-27T18:11:15.910Z,3.57
2023-03-27T18:13:42.705Z,3.33
2023-03-27T18:16:13.292Z,5.70
2023-03-27T18:18:40.325Z,3.93
2023-03-27T18:21:07.238Z,4.90
2023-03-27T18:23:34.912Z,5.73
2023-03-27T18:26:06.836Z,5.50
2023-03-27T18:28:34.617Z,5.87
2023-03-27T18:31:08.270Z,4.20
2023-03-27T18:33:35.069Z,4.10
2023-03-27T18:36:02.297Z,4.50
2023-03-27T18:38:29.605Z,4.80
2023-03-27T18:40:56.844Z,7.40
2023-03-27T18:43:23.829Z,5.87
2023-03-27T18:46:01.040Z,6.80
2023-03-27T18:48:29.624Z,3.40
2023-03-27T18:50:58.342Z,4.67
2023-03-27T18:53:25.895Z,6.70
2023-03-27T18:55:53.655Z,4.93
2023-03-27T18:58:24.114Z,3.83
2023-03-27T19:00:50.817Z,3.13
2023-03-27T19:03:20.064Z,3.93
2023-03-27T19:05:47.796Z,3.53
2023-03-27T19:08:15.339Z,3.00
2023-03-27T19:10:42.638Z,3.73
2023-03-27T19:13:09.378Z,5.47
2023-03-27T19:15:36.625Z,4.53
2023-03-27T19:18:03.961Z,3.03
2023-03-27T19:20:30.641Z,5.43
2023-03-27T19:22:57.161Z,2.80
2023-03-27T19:25:23.707Z,4.20
2023-03-27T19:27:50.340Z,5.10
2023-03-27T19:30:18.237Z,4.80
2023-03-27T19:32:44.896Z,3.00
2023-03-27T19:35:11.548Z,3.10
2023-03-27T19:37:38.122Z,3.13
2023-03-27T19:40:05.431Z,4.37
2023-03-27T19:42:32.565Z,6.27
2023-03-27T19:44:59.108Z,6.60
2023-03-27T19:47:25.782Z,7.93
2023-03-27T19:49:53.777Z,6.43
2023-03-27T19:52:20.640Z,4.67
2023-03-27T19:54:47.319Z,5.97
2023-03-27T19:57:14.298Z,7.03
2023-03-27T19:59:40.921Z,4.37
2023-03-27T20:02:07.475Z,4.07
2023-03-27T20:04:34.037Z,4.53
2023-03-27T20:07:02.130Z,5.53
2023-03-27T20:09:28.987Z,6.77
2023-03-27T20:11:56.749Z,5.03
2023-03-27T20:14:23.557Z,4.13
2023-03-27T20:16:50.907Z,5.00
2023-03-27T20:19:17.638Z,6.33
2023-03-27T20:21:44.415Z,4.20
2023-03-27T20:24:13.022Z,3.33
2023-03-27T20:26:41.735Z,4.27
2023-03-27T20:29:14.494Z,3.93
2023-03-27T20:31:41.189Z,5.13
2023-03-27T20:34:09.007Z,3.00
2023-03-27T20:36:38.898Z,7.83
2023-03-27T20:39:07.528Z,4.60
2023-03-27T20:41:38.794Z,4.40
2023-03-27T20:44:15.337Z,5.20
2023-03-27T20:46:51.131Z,3.57
2023-03-27T20:49:39.942Z,3.87
2023-03-27T20:52:08.608Z,3.97
2023-03-27T20:54:35.207Z,2.40
2023-03-27T20:57:02.954Z,3.00
2023-03-27T20:59:30.932Z,5.07
2023-03-27T21:01:59.113Z,3.90
2023-03-27T21:04:26.455Z,3.73
2023-03-27T21:06:54.825Z,6.07
2023-03-27T21:09:22.898Z,4.57
2023-03-27T21:11:49.657Z,5.37
2023-03-27T21:14:16.987Z,3.17
2023-03-27T21:16:43.724Z,3.40
2023-03-27T21:19:11.873Z,2.20
2023-03-27T21:21:39.020Z,2.50
2023-03-27T21:24:06.383Z,5.40
2023-03-27T21:26:33.607Z,2.93
2023-03-27T21:29:00.669Z,3.43
2023-03-27T21:31:27.271Z,2.77
2023-03-27T21:33:53.914Z,3.27
2023-03-27T21:36:20.607Z,2.67
2023-03-27T21:38:47.418Z,2.77
2023-03-27T21:41:15.674Z,7.60
2023-03-27T21:43:42.396Z,2.57
2023-03-27T21:46:09.041Z,3.00
2023-03-27T21:48:35.723Z,3.43
2023-03-27T21:51:04.781Z,4.60
2023-03-27T21:53:31.443Z,3.07
2023-03-27T21:55:58.447Z,2.93
2023-03-27T21:58:25.389Z,1.90
2023-03-27T22:00:52.520Z,1.57
2023-03-27T22:03:19.122Z,1.97
2023-03-27T22:05:51.595Z,2.67
2023-03-27T22:08:27.919Z,1.70
2023-03-27T22:10:58.351Z,2.80
2023-03-27T22:13:25.057Z,2.90
2023-03-27T22:15:51.776Z,2.23
2023-03-27T22:18:18.578Z,3.40
2023-03-27T22:20:45.330Z,1.43
2023-03-27T22:23:11.888Z,2.77
2023-03-27T22:25:38.447Z,2.00
2023-03-27T22:28:05.144Z,3.23
2023-03-27T22:30:31.947Z,3.90
2023-03-27T22:32:58.655Z,2.33
2023-03-27T22:35:25.297Z,2.53
2023-03-27T22:37:51.992Z,2.23
2023-03-27T22:40:18.621Z,2.20
2023-03-27T22:42:45.524Z,1.80
2023-03-27T22:45:12.212Z,2.53
2023-03-27T22:47:38.832Z,3.07
2023-03-27T22:50:06.323Z,3.10
2023-03-27T22:52:33.178Z,2.07
2023-03-27T22:54:59.796Z,1.33
2023-03-27T22:57:26.430Z,3.17
2023-03-27T22:59:53.077Z,2.33
2023-03-27T23:02:20.716Z,1.60
2023-03-27T23:04:47.283Z,2.60
2023-03-27T23:07:13.817Z,1.20
2023-03-27T23:09:40.402Z,2.53
2023-03-27T23:12:07.031Z,1.93
2023-03-27T23:14:33.587Z,1.50
2023-03-27T23:17:00.572Z,1.80
2023-03-27T23:19:27.230Z,3.60
2023-03-27T23:21:53.779Z,1.90
2023-03-27T23:24:20.549Z,2.07
2023-03-27T23:26:47.103Z,1.43
2023-03-27T23:29:13.694Z,1.63
2023-03-27T23:31:40.421Z,2.30
2023-03-27T23:34:06.978Z,1.00
2023-03-27T23:36:33.537Z,2.57
2023-03-27T23:39:00.177Z,3.13
2023-03-27T23:41:26.816Z,2.13
2023-03-27T23:43:53.847Z,2.87
2023-03-27T23:46:20.550Z,3.07
2023-03-27T23:48:47.197Z,1.83
2023-03-27T23:51:15.837Z,2.33
2023-03-27T23:53:42.523Z,1.50
2023-03-27T23:56:09.940Z,1.13
2023-03-27T23:58:37.166Z,1.57
